createdAt,value
2023-04-14T00:00:00.212Z,9.30
2023-04-14T00:01:00.183Z,12.00
2023-04-14T00:02:00.337Z,10.00
2023-04-14T00:03:00.367Z,10.70
2023-04-14T00:04:00.360Z,9.90
2023-04-14T00:05:00.340Z,7.30
2023-04-14T00:06:00.164Z,7.60
2023-04-14T00:07:00.183Z,9.50
2023-04-14T00:08:00.156Z,12.70
2023-04-14T00:09:00.423Z,9.80
2023-04-14T00:10:00.112Z,8.60
2023-04-14T00:11:00.086Z,8.40
2023-04-14T00:12:00.073Z,8.10
2023-04-14T00:13:00.060Z,10.80
2023-04-14T00:14:00.112Z,9.00
2023-04-14T00:15:00.036Z,10.50
2023-04-14T00:16:00.085Z,7.80
2023-04-14T00:17:00.011Z,7.60
2023-04-14T00:18:00.050Z,11.20
2023-04-14T00:19:00.256Z,10.70
2023-04-14T00:19:59.990Z,9.50
2023-04-14T00:21:00.030Z,6.90
2023-04-14T00:21:59.996Z,8.50
2023-04-14T00:22:59.945Z,7.00
2023-04-14T00:23:59.988Z,8.10
2023-04-14T00:24:59.929Z,9.30
2023-04-14T00:25:59.936Z,9.40
2023-04-14T00:26:59.942Z,11.70
2023-04-14T00:27:59.955Z,9.30
2023-04-14T00:29:00.171Z,8.70
2023-04-14T00:29:59.886Z,6.60
2023-04-14T00:30:59.890Z,7.50
2023-04-14T00:31:59.875Z,9.70
2023-04-14T00:32:59.970Z,6.50
2023-04-14T00:33:59.853Z,7.00
2023-04-14T00:34:59.856Z,12.00
2023-04-14T00:35:59.845Z,9.00
2023-04-14T00:36:59.821Z,9.70
2023-04-14T00:37:59.867Z,7.10
2023-04-14T00:38:59.968Z,8.40
2023-04-14T00:39:59.830Z,7.10
2023-04-14T00:40:59.761Z,7.20
2023-04-14T00:41:59.778Z,6.40
2023-04-14T00:42:59.801Z,10.20
2023-04-14T00:43:59.755Z,7.90
2023-04-14T00:44:59.727Z,9.30
2023-04-14T00:45:59.753Z,7.50
2023-04-14T00:46:59.728Z,7.30
2023-04-14T00:47:59.698Z,9.90
2023-04-14T00:48:59.938Z,9.00
2023-04-14T00:49:59.698Z,7.50
2023-04-14T00:50:59.679Z,8.10
2023-04-14T00:51:59.683Z,8.90
2023-04-14T00:52:59.657Z,9.50
2023-04-14T00:53:59.680Z,9.70
2023-04-14T00:54:59.632Z,6.90
2023-04-14T00:55:59.605Z,11.20
2023-04-14T00:56:59.659Z,6.30
2023-04-14T00:57:59.603Z,6.20
2023-04-14T00:58:59.797Z,11.30
2023-04-14T00:59:59.572Z,5.30
2023-04-14T01:00:59.579Z,5.80
2023-04-14T01:01:59.646Z,5.20
2023-04-14T01:02:59.763Z,7.90
2023-04-14T01:03:59.694Z,5.40
2023-04-14T01:04:59.652Z,5.50
2023-04-14T01:05:59.530Z,6.80
2023-04-14T01:06:59.498Z,4.30
2023-04-14T01:07:59.538Z,4.70
2023-04-14T01:08:59.847Z,8.30
2023-04-14T01:09:59.476Z,4.90
2023-04-14T01:10:59.462Z,4.60
2023-04-14T01:11:59.470Z,4.90
2023-04-14T01:12:59.441Z,4.40
2023-04-14T01:13:59.493Z,5.40
2023-04-14T01:14:59.443Z,4.20
2023-04-14T01:15:59.457Z,4.40
2023-04-14T01:16:59.443Z,6.80
2023-04-14T01:17:59.482Z,4.80
2023-04-14T01:18:59.659Z,4.50
2023-04-14T01:19:59.379Z,4.20
2023-04-14T01:20:59.357Z,6.50
2023-04-14T01:21:59.353Z,5.30
2023-04-14T01:22:59.322Z,5.70
2023-04-14T01:23:59.452Z,5.60
2023-04-14T01:24:59.327Z,3.60
2023-04-14T01:25:59.336Z,4.50
2023-04-14T01:26:59.307Z,4.40
2023-04-14T01:27:59.296Z,5.80
2023-04-14T01:28:59.619Z,5.20
2023-04-14T01:29:59.254Z,5.90
2023-04-14T01:30:59.253Z,3.70
2023-04-14T01:31:59.264Z,3.20
2023-04-14T01:32:59.281Z,3.50
2023-04-14T01:33:59.243Z,6.20
2023-04-14T01:34:59.207Z,3.10
2023-04-14T01:35:59.247Z,5.40
2023-04-14T01:36:59.201Z,4.70
2023-04-14T01:37:59.184Z,4.70
2023-04-14T01:38:59.408Z,8.90
2023-04-14T01:39:59.185Z,6.30
2023-04-14T01:40:59.159Z,4.50
2023-04-14T01:41:59.168Z,4.40
2023-04-14T01:42:59.134Z,4.30
2023-04-14T01:43:59.155Z,3.40
2023-04-14T01:44:59.190Z,5.30
2023-04-14T01:45:59.136Z,5.10
2023-04-14T01:46:59.087Z,6.40
2023-04-14T01:47:59.216Z,3.60
2023-04-14T01:48:59.311Z,3.20
2023-04-14T01:49:59.074Z,3.70
2023-04-14T01:50:59.126Z,6.50
2023-04-14T01:51:59.038Z,3.40
2023-04-14T01:52:59.044Z,5.50
2023-04-14T01:53:59.085Z,5.60
2023-04-14T01:54:59.025Z,4.70
2023-04-14T01:55:58.992Z,2.80
2023-04-14T01:56:58.998Z,4.10
2023-04-14T01:57:58.985Z,2.30
2023-04-14T01:58:59.186Z,3.40
2023-04-14T01:59:59.015Z,3.90
2023-04-14T02:00:58.959Z,3.70
2023-04-14T02:01:59.041Z,4.40
2023-04-14T02:02:59.318Z,3.20
2023-04-14T02:03:59.044Z,7.70
2023-04-14T02:04:58.902Z,6.60
2023-04-14T02:05:58.895Z,6.00
2023-04-14T02:06:58.868Z,5.30
2023-04-14T02:07:58.866Z,6.80
2023-04-14T02:08:59.183Z,3.10
2023-04-14T02:09:58.862Z,3.00
2023-04-14T02:10:58.830Z,5.30
2023-04-14T02:11:58.827Z,8.90
2023-04-14T02:12:58.827Z,5.00
2023-04-14T02:13:58.838Z,6.00
2023-04-14T02:14:58.808Z,6.00
2023-04-14T02:15:58.778Z,4.70
2023-04-14T02:16:58.894Z,5.20
2023-04-14T02:17:58.801Z,5.80
2023-04-14T02:18:58.985Z,5.60
2023-04-14T02:19:58.736Z,2.90
2023-04-14T02:20:58.749Z,5.00
2023-04-14T02:21:58.737Z,5.50
2023-04-14T02:22:58.707Z,5.00
2023-04-14T02:23:58.727Z,4.10
2023-04-14T02:24:58.688Z,4.20
2023-04-14T02:25:58.684Z,3.00
2023-04-14T02:26:58.695Z,5.90
2023-04-14T02:27:58.691Z,2.70
2023-04-14T02:28:58.832Z,4.50
2023-04-14T02:29:58.654Z,4.90
2023-04-14T02:30:58.660Z,3.10
2023-04-14T02:31:58.688Z,3.20
2023-04-14T02:32:58.743Z,2.50
2023-04-14T02:33:58.614Z,3.90
2023-04-14T02:34:58.584Z,3.40
2023-04-14T02:35:58.614Z,4.30
2023-04-14T02:36:58.554Z,4.00
2023-04-14T02:37:58.590Z,4.50
2023-04-14T02:38:58.589Z,6.20
2023-04-14T02:39:58.535Z,4.30
2023-04-14T02:40:58.529Z,6.40
2023-04-14T02:41:58.523Z,3.20
2023-04-14T02:42:58.560Z,5.90
2023-04-14T02:43:58.527Z,2.80
2023-04-14T02:44:58.497Z,5.80
2023-04-14T02:45:58.496Z,4.90
2023-04-14T02:46:58.479Z,5.70
2023-04-14T02:47:58.475Z,5.70
2023-04-14T02:48:58.691Z,4.50
2023-04-14T02:49:58.592Z,3.10
2023-04-14T02:50:58.419Z,4.90
2023-04-14T02:51:58.417Z,3.80
2023-04-14T02:52:58.406Z,6.60
2023-04-14T02:53:58.392Z,4.50
2023-04-14T02:54:58.399Z,7.60
2023-04-14T02:55:58.382Z,3.40
2023-04-14T02:56:58.378Z,6.30
2023-04-14T02:57:58.364Z,5.20
2023-04-14T02:58:58.518Z,4.70
2023-04-14T02:59:58.320Z,8.30
2023-04-14T03:00:58.324Z,5.30
2023-04-14T03:01:58.366Z,9.00
2023-04-14T03:02:58.412Z,6.80
2023-04-14T03:03:58.325Z,8.60
2023-04-14T03:04:58.285Z,5.60
2023-04-14T03:05:58.275Z,6.00
2023-04-14T03:06:58.282Z,4.70
2023-04-14T03:07:58.258Z,7.70
2023-04-14T03:08:58.503Z,9.20
2023-04-14T03:09:58.266Z,5.90
2023-04-14T03:10:58.228Z,6.30
2023-04-14T03:11:58.216Z,9.30
2023-04-14T03:12:58.237Z,5.30
2023-04-14T03:13:58.186Z,6.80
2023-04-14T03:14:58.182Z,8.50
2023-04-14T03:15:58.244Z,10.00
2023-04-14T03:16:58.167Z,8.60
2023-04-14T03:17:58.188Z,10.90
2023-04-14T03:18:58.308Z,7.40
2023-04-14T03:19:58.132Z,10.20
2023-04-14T03:20:58.118Z,10.30
2023-04-14T03:21:58.111Z,9.60
2023-04-14T03:22:58.112Z,13.40
2023-04-14T03:23:58.080Z,6.60
2023-04-14T03:24:58.103Z,10.50
2023-04-14T03:25:58.101Z,7.90
2023-04-14T03:26:58.094Z,6.90
2023-04-14T03:27:58.034Z,9.00
2023-04-14T03:28:58.108Z,10.80
2023-04-14T03:29:58.018Z,12.00
2023-04-14T03:30:58.076Z,9.50
2023-04-14T03:31:58.029Z,14.30
2023-04-14T03:32:58.028Z,6.80
2023-04-14T03:33:57.977Z,12.30
2023-04-14T03:34:57.998Z,8.20
2023-04-14T03:35:57.964Z,11.40
2023-04-14T03:36:57.967Z,10.00
2023-04-14T03:37:57.945Z,8.90
2023-04-14T03:38:58.337Z,8.10
2023-04-14T03:39:57.939Z,8.30
2023-04-14T03:40:57.950Z,12.20
2023-04-14T03:41:57.877Z,9.90
2023-04-14T03:42:57.934Z,7.40
2023-04-14T03:43:57.890Z,9.70
2023-04-14T03:44:57.822Z,10.90
2023-04-14T03:45:57.846Z,8.80
2023-04-14T03:46:57.957Z,8.70
2023-04-14T03:47:57.925Z,9.00
2023-04-14T03:48:57.932Z,6.30
2023-04-14T03:49:57.771Z,8.30
2023-04-14T03:50:57.774Z,5.80
2023-04-14T03:51:57.724Z,9.10
2023-04-14T03:52:57.809Z,7.40
2023-04-14T03:53:58.154Z,9.80
2023-04-14T03:54:57.732Z,7.70
2023-04-14T03:55:57.698Z,5.60
2023-04-14T03:56:57.677Z,5.70
2023-04-14T03:57:57.742Z,7.00
2023-04-14T03:58:57.660Z,10.30
2023-04-14T03:59:57.732Z,7.30
2023-04-14T04:00:57.638Z,5.20
2023-04-14T04:01:57.702Z,4.50
2023-04-14T04:02:57.882Z,5.40
2023-04-14T04:03:57.867Z,4.80
2023-04-14T04:04:57.628Z,5.10
2023-04-14T04:05:57.596Z,4.40
2023-04-14T04:06:57.615Z,4.30
2023-04-14T04:07:57.581Z,5.20
2023-04-14T04:08:57.554Z,4.70
2023-04-14T04:09:57.562Z,5.60
2023-04-14T04:10:57.543Z,8.20
2023-04-14T04:11:57.560Z,8.00
2023-04-14T04:12:57.601Z,7.00
2023-04-14T04:13:57.497Z,5.20
2023-04-14T04:15:03.541Z,4.60
2023-04-14T04:15:57.469Z,8.20
2023-04-14T04:17:00.235Z,7.40
2023-04-14T04:17:57.503Z,7.20
2023-04-14T04:18:57.481Z,3.60
2023-04-14T04:19:57.431Z,5.20
2023-04-14T04:20:57.463Z,6.90
2023-04-14T04:21:57.412Z,9.40
2023-04-14T04:22:57.424Z,7.70
2023-04-14T04:23:57.408Z,4.60
2023-04-14T04:24:57.386Z,7.10
2023-04-14T04:25:57.374Z,8.40
2023-04-14T04:26:57.368Z,5.10
2023-04-14T04:27:57.354Z,5.60
2023-04-14T04:28:57.368Z,5.70
2023-04-14T04:29:57.340Z,8.60
2023-04-14T04:30:57.332Z,8.90
2023-04-14T04:31:57.473Z,7.70
2023-04-14T04:32:57.346Z,6.20
2023-04-14T04:33:57.308Z,7.40
2023-04-14T04:34:57.279Z,9.10
2023-04-14T04:35:57.265Z,4.50
2023-04-14T04:36:57.264Z,5.80
2023-04-14T04:37:57.243Z,8.30
2023-04-14T04:38:57.649Z,7.40
2023-04-14T04:39:57.235Z,6.10
2023-04-14T04:40:57.219Z,5.50
2023-04-14T04:41:57.225Z,10.10
2023-04-14T04:42:57.213Z,5.10
2023-04-14T04:43:57.237Z,9.10
2023-04-14T04:44:57.248Z,5.80
2023-04-14T04:45:57.236Z,6.10
2023-04-14T04:46:57.155Z,5.00
2023-04-14T04:47:57.157Z,7.70
2023-04-14T04:48:57.158Z,8.20
2023-04-14T04:49:57.126Z,9.30
2023-04-14T04:50:57.125Z,4.20
2023-04-14T04:51:57.189Z,3.80
2023-04-14T04:52:57.103Z,4.70
2023-04-14T04:53:57.121Z,3.60
2023-04-14T04:54:57.115Z,5.30
2023-04-14T04:55:57.065Z,4.80
2023-04-14T04:56:57.084Z,28.90
2023-04-14T04:57:57.039Z,39.30
2023-04-14T04:58:57.041Z,40.70
2023-04-14T04:59:57.072Z,19.80
2023-04-14T05:00:57.031Z,5.20
2023-04-14T05:01:57.125Z,7.00
2023-04-14T05:02:57.151Z,4.80
2023-04-14T05:03:57.039Z,4.60
2023-04-14T05:04:57.019Z,5.40
2023-04-14T05:05:56.968Z,5.00
2023-04-14T05:06:56.963Z,4.40
2023-04-14T05:07:56.953Z,7.60
2023-04-14T05:08:56.994Z,7.00
2023-04-14T05:09:56.931Z,7.10
2023-04-14T05:10:56.929Z,5.80
2023-04-14T05:11:56.928Z,6.40
2023-04-14T05:12:56.913Z,4.90
2023-04-14T05:13:56.910Z,6.60
2023-04-14T05:14:56.890Z,5.60
2023-04-14T05:15:56.874Z,6.00
2023-04-14T05:16:56.987Z,6.60
2023-04-14T05:17:56.892Z,6.50
2023-04-14T05:18:56.849Z,10.80
2023-04-14T05:19:56.841Z,10.70
2023-04-14T05:20:56.813Z,7.10
2023-04-14T05:21:56.825Z,4.50
2023-04-14T05:22:56.791Z,5.00
2023-04-14T05:23:56.803Z,5.90
2023-04-14T05:24:56.806Z,29.80
2023-04-14T05:26:01.294Z,55.50
2023-04-14T05:27:13.117Z,24.20
2023-04-14T05:27:56.747Z,9.90
2023-04-14T05:28:56.737Z,12.30
2023-04-14T05:29:56.744Z,5.30
2023-04-14T05:30:57.283Z,6.20
2023-04-14T05:31:56.688Z,5.00
2023-04-14T05:32:56.722Z,6.70
2023-04-14T05:33:56.692Z,8.70
2023-04-14T05:34:56.663Z,9.00
2023-04-14T05:35:56.647Z,6.30
2023-04-14T05:36:56.647Z,8.40
2023-04-14T05:37:56.624Z,6.30
2023-04-14T05:38:56.641Z,4.50
2023-04-14T05:39:56.616Z,5.90
2023-04-14T05:40:56.626Z,3.60
2023-04-14T05:41:56.582Z,4.70
2023-04-14T05:42:57.202Z,7.20
2023-04-14T05:43:56.568Z,6.00
2023-04-14T05:44:56.574Z,7.50
2023-04-14T05:45:56.542Z,9.40
2023-04-14T05:46:56.633Z,4.40
2023-04-14T05:47:56.568Z,4.60
2023-04-14T05:48:56.512Z,2.70
2023-04-14T05:49:56.514Z,3.90
2023-04-14T05:50:56.503Z,6.40
2023-04-14T05:51:56.573Z,5.50
2023-04-14T05:52:56.666Z,4.80
2023-04-14T05:53:56.501Z,6.00
2023-04-14T05:54:56.464Z,6.80
2023-04-14T05:55:56.446Z,5.50
2023-04-14T05:56:56.485Z,6.50
2023-04-14T05:57:56.459Z,4.40
2023-04-14T05:58:56.575Z,5.10
2023-04-14T05:59:58.189Z,4.50
2023-04-14T06:00:56.399Z,6.00
2023-04-14T06:01:56.485Z,6.60
2023-04-14T06:02:56.579Z,5.40
2023-04-14T06:03:56.624Z,4.70
2023-04-14T06:04:56.444Z,5.20
2023-04-14T06:05:56.346Z,5.30
2023-04-14T06:06:56.328Z,3.40
2023-04-14T06:07:56.334Z,5.10
2023-04-14T06:08:56.321Z,4.30
2023-04-14T06:09:56.298Z,4.70
2023-04-14T06:10:56.288Z,3.00
2023-04-14T06:11:56.305Z,4.00
2023-04-14T06:12:56.267Z,4.50
2023-04-14T06:13:56.314Z,7.40
2023-04-14T06:14:56.254Z,3.90
2023-04-14T06:15:56.275Z,3.90
2023-04-14T06:16:56.267Z,4.70
2023-04-14T06:17:56.280Z,6.70
2023-04-14T06:18:56.232Z,5.40
2023-04-14T06:19:56.195Z,3.60
2023-04-14T06:20:56.220Z,4.00
2023-04-14T06:21:56.180Z,6.50
2023-04-14T06:22:56.175Z,3.60
2023-04-14T06:23:56.625Z,4.30
2023-04-14T06:24:56.167Z,4.90
2023-04-14T06:25:56.157Z,4.90
2023-04-14T06:26:56.144Z,8.60
2023-04-14T06:27:56.107Z,5.10
2023-04-14T06:28:56.130Z,4.10
2023-04-14T06:29:56.097Z,4.50
2023-04-14T06:30:56.096Z,5.90
2023-04-14T06:31:56.131Z,5.90
2023-04-14T06:32:56.119Z,4.70
2023-04-14T06:33:56.064Z,4.00
2023-04-14T06:34:56.118Z,5.90
2023-04-14T06:35:56.051Z,7.00
2023-04-14T06:36:56.041Z,4.30
2023-04-14T06:37:56.029Z,5.40
2023-04-14T06:38:56.066Z,7.00
2023-04-14T06:39:56.014Z,4.30
2023-04-14T06:40:56.017Z,7.10
2023-04-14T06:41:56.018Z,3.80
2023-04-14T06:42:55.954Z,5.20
2023-04-14T06:43:55.985Z,8.00
2023-04-14T06:44:55.951Z,7.70
2023-04-14T06:45:55.967Z,5.80
2023-04-14T06:46:57.151Z,6.80
2023-04-14T06:47:56.054Z,8.20
2023-04-14T06:48:55.919Z,4.30
2023-04-14T06:49:55.909Z,4.70
2023-04-14T06:50:55.955Z,3.80
2023-04-14T06:51:55.861Z,5.70
2023-04-14T06:52:55.879Z,7.10
2023-04-14T06:53:55.856Z,7.10
2023-04-14T06:54:55.850Z,5.70
2023-04-14T06:55:55.838Z,7.80
2023-04-14T06:56:55.810Z,6.20
2023-04-14T06:57:55.815Z,7.60
2023-04-14T06:58:55.870Z,5.00
2023-04-14T06:59:55.794Z,7.50
2023-04-14T07:00:55.844Z,8.40
2023-04-14T07:01:55.940Z,9.40
2023-04-14T07:02:55.971Z,6.80
2023-04-14T07:03:55.735Z,9.70
2023-04-14T07:04:55.789Z,6.20
2023-04-14T07:05:55.718Z,10.00
2023-04-14T07:06:55.704Z,8.90
2023-04-14T07:07:55.720Z,10.50
2023-04-14T07:08:55.704Z,6.60
2023-04-14T07:09:55.702Z,5.90
2023-04-14T07:10:55.683Z,7.70
2023-04-14T07:11:55.721Z,8.60
2023-04-14T07:12:55.649Z,9.30
2023-04-14T07:13:55.678Z,8.10
2023-04-14T07:14:55.627Z,8.20
2023-04-14T07:15:55.667Z,7.30
2023-04-14T07:16:55.603Z,7.60
2023-04-14T07:17:56.845Z,7.30
2023-04-14T07:18:55.593Z,9.60
2023-04-14T07:19:55.573Z,5.00
2023-04-14T07:20:55.560Z,4.90
2023-04-14T07:21:55.550Z,4.90
2023-04-14T07:22:55.598Z,5.20
2023-04-14T07:23:55.530Z,6.00
2023-04-14T07:24:55.520Z,4.50
2023-04-14T07:25:55.552Z,9.90
2023-04-14T07:26:55.516Z,6.60
2023-04-14T07:28:03.154Z,5.80
2023-04-14T07:28:55.488Z,8.90
2023-04-14T07:29:55.478Z,6.50
2023-04-14T07:30:55.522Z,9.00
2023-04-14T07:31:55.440Z,7.00
2023-04-14T07:32:55.476Z,11.80
2023-04-14T07:33:55.420Z,7.70
2023-04-14T07:34:56.732Z,9.00
2023-04-14T07:36:02.842Z,6.20
2023-04-14T07:36:55.400Z,7.90
2023-04-14T07:37:55.394Z,6.30
2023-04-14T07:38:55.369Z,5.20
2023-04-14T07:39:55.439Z,9.50
2023-04-14T07:40:55.355Z,6.70
2023-04-14T07:41:55.334Z,5.20
2023-04-14T07:42:55.355Z,6.90
2023-04-14T07:43:55.322Z,7.20
2023-04-14T07:44:55.305Z,7.70
2023-04-14T07:45:55.327Z,6.40
2023-04-14T07:46:55.301Z,6.70
2023-04-14T07:47:57.572Z,8.40
2023-04-14T07:48:55.277Z,5.80
2023-04-14T07:49:55.440Z,5.50
2023-04-14T07:50:55.295Z,5.00
2023-04-14T07:51:55.272Z,7.00
2023-04-14T07:52:55.218Z,5.70
2023-04-14T07:53:55.238Z,6.30
2023-04-14T07:54:55.200Z,5.50
2023-04-14T07:55:55.192Z,6.70
2023-04-14T07:56:55.175Z,6.90
2023-04-14T07:57:55.170Z,6.20
2023-04-14T07:58:55.235Z,5.90
2023-04-14T07:59:55.166Z,4.70
2023-04-14T08:00:55.135Z,6.10
2023-04-14T08:01:55.360Z,7.50
2023-04-14T08:02:55.294Z,7.30
2023-04-14T08:03:55.471Z,7.30
2023-04-14T08:04:55.130Z,5.90
2023-04-14T08:05:55.116Z,4.60
2023-04-14T08:06:55.089Z,6.30
2023-04-14T08:07:55.088Z,6.20
2023-04-14T08:08:55.065Z,6.40
2023-04-14T08:09:55.057Z,5.50
2023-04-14T08:10:55.032Z,7.20
2023-04-14T08:11:55.038Z,5.20
2023-04-14T08:12:55.051Z,6.70
2023-04-14T08:13:55.006Z,5.90
2023-04-14T08:14:55.007Z,4.60
2023-04-14T08:15:55.026Z,4.20
2023-04-14T08:16:54.984Z,5.60
2023-04-14T08:17:55.067Z,5.20
2023-04-14T08:18:57.228Z,6.00
2023-04-14T08:19:54.940Z,4.90
2023-04-14T08:20:54.978Z,5.70
2023-04-14T08:21:54.951Z,5.80
2023-04-14T08:22:54.978Z,5.40
2023-04-14T08:23:54.935Z,3.50
2023-04-14T08:24:54.943Z,8.80
2023-04-14T08:25:54.897Z,6.50
2023-04-14T08:26:54.873Z,7.20
2023-04-14T08:27:54.925Z,5.60
2023-04-14T08:28:54.873Z,6.10
2023-04-14T08:29:54.908Z,6.20
2023-04-14T08:30:54.862Z,5.80
2023-04-14T08:31:54.915Z,5.60
2023-04-14T08:32:58.880Z,6.60
2023-04-14T08:33:54.802Z,5.00
2023-04-14T08:35:36.880Z,6.80
2023-04-14T08:36:00.151Z,5.30
2023-04-14T08:36:54.759Z,6.70
2023-04-14T08:37:54.802Z,3.70
2023-04-14T08:38:54.751Z,6.20
2023-04-14T08:39:54.761Z,7.30
2023-04-14T08:40:54.735Z,5.00
2023-04-14T08:41:54.710Z,4.40
2023-04-14T08:42:54.745Z,6.00
2023-04-14T08:43:54.717Z,5.30
2023-04-14T08:44:54.740Z,6.30
2023-04-14T08:45:54.697Z,6.60
2023-04-14T08:46:54.666Z,7.40
2023-04-14T08:47:54.754Z,8.10
2023-04-14T08:48:54.636Z,4.10
2023-04-14T08:49:54.690Z,5.20
2023-04-14T08:50:54.643Z,5.50
2023-04-14T08:51:54.628Z,6.20
2023-04-14T08:52:54.685Z,6.80
2023-04-14T08:53:54.618Z,6.80
2023-04-14T08:54:54.587Z,4.80
2023-04-14T08:55:57.512Z,8.10
2023-04-14T08:56:54.564Z,6.50
2023-04-14T08:57:54.603Z,5.60
2023-04-14T08:58:54.554Z,6.10
2023-04-14T08:59:54.544Z,3.50
2023-04-14T09:00:54.617Z,4.70
2023-04-14T09:01:54.814Z,4.60
2023-04-14T09:02:54.761Z,4.70
2023-04-14T09:03:54.628Z,6.00
2023-04-14T09:04:54.557Z,9.40
2023-04-14T09:05:54.476Z,5.80
2023-04-14T09:06:54.461Z,5.30
2023-04-14T09:07:54.463Z,10.40
2023-04-14T09:08:54.460Z,9.00
2023-04-14T09:09:54.442Z,5.20
2023-04-14T09:10:54.414Z,4.10
2023-04-14T09:11:54.435Z,4.90
2023-04-14T09:12:54.443Z,5.80
2023-04-14T09:13:54.414Z,4.50
2023-04-14T09:14:54.683Z,4.50
2023-04-14T09:15:54.401Z,4.60
2023-04-14T09:16:54.425Z,5.60
2023-04-14T09:17:54.410Z,3.50
2023-04-14T09:18:54.363Z,5.20
2023-04-14T09:20:35.747Z,4.20
2023-04-14T09:21:31.280Z,4.50
2023-04-14T09:21:59.265Z,5.60
2023-04-14T09:22:54.319Z,4.30
2023-04-14T09:23:54.339Z,4.90
2023-04-14T09:24:54.267Z,6.30
2023-04-14T09:25:54.260Z,4.60
2023-04-14T09:26:54.273Z,3.60
2023-04-14T09:27:54.298Z,3.90
2023-04-14T09:28:54.258Z,3.50
2023-04-14T09:29:54.238Z,3.70
2023-04-14T09:30:54.233Z,4.50
2023-04-14T09:31:54.197Z,6.20
2023-04-14T09:32:54.260Z,4.80
2023-04-14T09:33:54.218Z,3.50
2023-04-14T09:34:56.486Z,4.30
2023-04-14T09:35:54.168Z,5.70
2023-04-14T09:36:54.158Z,6.20
2023-04-14T09:37:54.156Z,8.30
2023-04-14T09:38:54.160Z,4.80
2023-04-14T09:39:54.160Z,4.70
2023-04-14T09:40:56.400Z,4.40
2023-04-14T09:41:54.091Z,4.10
2023-04-14T09:42:54.157Z,4.40
2023-04-14T09:43:54.085Z,4.60
2023-04-14T09:44:54.074Z,4.30
2023-04-14T09:45:54.066Z,7.80
2023-04-14T09:46:55.624Z,4.60
2023-04-14T09:47:54.080Z,3.90
2023-04-14T09:48:54.152Z,4.20
2023-04-14T09:49:54.012Z,4.80
2023-04-14T09:50:53.997Z,4.20
2023-04-14T09:51:54.004Z,5.30
2023-04-14T09:52:54.008Z,4.60
2023-04-14T09:53:53.974Z,6.50
2023-04-14T09:54:53.964Z,4.60
2023-04-14T09:55:53.969Z,9.60
2023-04-14T09:56:53.930Z,6.40
2023-04-14T09:57:53.976Z,5.40
2023-04-14T09:58:53.929Z,8.70
2023-04-14T09:59:53.910Z,5.50
2023-04-14T10:00:53.893Z,5.40
2023-04-14T10:01:53.970Z,5.80
2023-04-14T10:02:53.994Z,5.30
2023-04-14T10:03:53.927Z,4.80
2023-04-14T10:04:53.933Z,5.30
2023-04-14T10:05:53.845Z,4.60
2023-04-14T10:06:53.827Z,5.60
2023-04-14T10:07:53.869Z,6.40
2023-04-14T10:08:53.815Z,4.00
2023-04-14T10:09:53.799Z,5.10
2023-04-14T10:10:53.814Z,4.90
2023-04-14T10:11:53.790Z,5.00
2023-04-14T10:12:53.801Z,7.00
2023-04-14T10:13:53.764Z,4.30
2023-04-14T10:14:53.767Z,5.50
2023-04-14T10:16:00.301Z,6.10
2023-04-14T10:16:53.734Z,7.00
2023-04-14T10:17:53.749Z,5.80
2023-04-14T10:18:53.790Z,6.70
2023-04-14T10:19:53.722Z,6.40
2023-04-14T10:20:53.705Z,4.80
2023-04-14T10:21:53.685Z,4.10
2023-04-14T10:22:53.712Z,6.70
2023-04-14T10:23:53.662Z,5.50
2023-04-14T10:24:53.651Z,5.30
2023-04-14T10:25:53.653Z,6.10
2023-04-14T10:26:53.626Z,4.70
2023-04-14T10:27:53.838Z,4.30
2023-04-14T10:28:53.621Z,4.70
2023-04-14T10:29:53.599Z,5.10
2023-04-14T10:30:53.597Z,6.40
2023-04-14T10:31:53.620Z,4.70
2023-04-14T10:32:53.738Z,4.30
2023-04-14T10:33:53.554Z,8.40
2023-04-14T10:34:53.574Z,4.10
2023-04-14T10:35:53.534Z,5.40
2023-04-14T10:36:53.523Z,3.80
2023-04-14T10:37:53.612Z,4.70
2023-04-14T10:38:53.500Z,5.60
2023-04-14T10:39:53.494Z,6.70
2023-04-14T10:40:53.511Z,5.80
2023-04-14T10:41:53.479Z,5.60
2023-04-14T10:42:53.490Z,7.40
2023-04-14T10:43:53.495Z,5.60
2023-04-14T10:44:53.444Z,4.50
2023-04-14T10:45:53.438Z,4.40
2023-04-14T10:46:53.482Z,4.30
2023-04-14T10:47:53.457Z,7.10
2023-04-14T10:48:53.406Z,4.70
2023-04-14T10:49:53.413Z,4.20
2023-04-14T10:50:53.385Z,5.40
2023-04-14T10:51:53.403Z,6.30
2023-04-14T10:52:53.396Z,5.70
2023-04-14T10:53:53.347Z,4.50
2023-04-14T10:54:53.497Z,5.70
2023-04-14T10:55:53.334Z,5.80
2023-04-14T10:56:53.317Z,5.10
2023-04-14T10:57:53.373Z,5.20
2023-04-14T10:58:53.295Z,6.80
2023-04-14T10:59:53.319Z,6.50
2023-04-14T11:00:53.312Z,5.20
2023-04-14T11:01:53.378Z,5.70
2023-04-14T11:02:53.447Z,4.30
2023-04-14T11:03:53.414Z,5.60
2023-04-14T11:04:53.262Z,7.40
2023-04-14T11:05:53.251Z,7.50
2023-04-14T11:06:53.237Z,9.60
2023-04-14T11:07:53.385Z,5.70
2023-04-14T11:08:53.224Z,5.50
2023-04-14T11:09:53.193Z,9.00
2023-04-14T11:10:53.178Z,4.60
2023-04-14T11:11:53.223Z,5.00
2023-04-14T11:12:53.192Z,6.50
2023-04-14T11:13:53.136Z,5.90
2023-04-14T11:14:53.204Z,5.60
2023-04-14T11:15:53.214Z,7.60
2023-04-14T11:17:02.594Z,5.60
2023-04-14T11:17:53.138Z,4.50
2023-04-14T11:18:53.102Z,5.00
2023-04-14T11:19:53.105Z,4.50
2023-04-14T11:20:53.088Z,4.90
2023-04-14T11:21:53.082Z,5.50
2023-04-14T11:22:53.117Z,4.90
2023-04-14T11:23:53.061Z,5.30
2023-04-14T11:24:53.060Z,6.90
2023-04-14T11:25:53.047Z,4.70
2023-04-14T11:26:53.040Z,7.60
2023-04-14T11:27:53.042Z,5.00
2023-04-14T11:28:52.993Z,5.20
2023-04-14T11:29:52.990Z,7.80
2023-04-14T11:30:52.979Z,3.80
2023-04-14T11:31:53.044Z,5.50
2023-04-14T11:32:53.059Z,4.80
2023-04-14T11:33:52.964Z,5.80
2023-04-14T11:34:52.932Z,4.90
2023-04-14T11:35:52.937Z,3.70
2023-04-14T11:36:52.920Z,5.10
2023-04-14T11:37:52.921Z,3.60
2023-04-14T11:38:52.890Z,6.40
2023-04-14T11:39:52.872Z,4.40
2023-04-14T11:40:52.870Z,4.80
2023-04-14T11:41:52.900Z,4.90
2023-04-14T11:42:52.869Z,6.80
2023-04-14T11:43:52.848Z,5.30
2023-04-14T11:44:52.825Z,4.50
2023-04-14T11:45:52.860Z,4.80
2023-04-14T11:46:52.803Z,9.30
2023-04-14T11:47:52.835Z,5.90
2023-04-14T11:48:52.779Z,5.70
2023-04-14T11:49:52.796Z,3.80
2023-04-14T11:50:52.754Z,4.30
2023-04-14T11:51:52.764Z,4.20
2023-04-14T11:52:52.769Z,4.10
2023-04-14T11:53:52.735Z,5.30
2023-04-14T11:54:52.774Z,4.00
2023-04-14T11:55:52.741Z,7.10
2023-04-14T11:56:52.714Z,3.90
2023-04-14T11:57:52.752Z,5.60
2023-04-14T11:58:52.678Z,7.20
2023-04-14T11:59:52.695Z,4.40
2023-04-14T12:00:55.501Z,5.60
2023-04-14T12:01:52.695Z,5.20
2023-04-14T12:02:52.901Z,5.70
2023-04-14T12:03:52.894Z,4.80
2023-04-14T12:04:52.821Z,3.60
2023-04-14T12:05:52.609Z,5.20
2023-04-14T12:06:53.249Z,3.40
2023-04-14T12:07:52.601Z,3.60
2023-04-14T12:08:52.580Z,4.60
2023-04-14T12:09:52.610Z,6.70
2023-04-14T12:10:52.583Z,7.90
2023-04-14T12:11:52.548Z,7.70
2023-04-14T12:12:52.576Z,5.60
2023-04-14T12:13:52.539Z,8.20
2023-04-14T12:14:52.525Z,5.60
2023-04-14T12:15:52.601Z,4.50
2023-04-14T12:16:52.526Z,6.30
2023-04-14T12:17:53.554Z,6.80
2023-04-14T12:18:52.482Z,5.80
2023-04-14T12:19:52.454Z,6.30
2023-04-14T12:20:52.456Z,4.90
2023-04-14T12:21:52.433Z,4.70
2023-04-14T12:22:52.486Z,4.20
2023-04-14T12:23:52.421Z,6.30
2023-04-14T12:24:52.416Z,4.80
2023-04-14T12:25:52.436Z,5.50
2023-04-14T12:26:52.394Z,4.40
2023-04-14T12:27:53.975Z,4.60
2023-04-14T12:28:52.370Z,6.20
2023-04-14T12:29:52.354Z,4.30
2023-04-14T12:30:52.345Z,4.00
2023-04-14T12:31:52.377Z,3.40
2023-04-14T12:32:52.386Z,3.00
2023-04-14T12:33:53.785Z,7.40
2023-04-14T12:34:52.317Z,5.70
2023-04-14T12:35:52.321Z,5.60
2023-04-14T12:36:52.295Z,5.10
2023-04-14T12:37:52.318Z,4.60
2023-04-14T12:38:52.269Z,6.10
2023-04-14T12:39:52.301Z,7.80
2023-04-14T12:40:52.266Z,4.90
2023-04-14T12:41:52.236Z,7.90
2023-04-14T12:42:52.322Z,7.10
2023-04-14T12:43:52.218Z,4.50
2023-04-14T12:44:52.218Z,5.80
2023-04-14T12:45:52.194Z,5.30
2023-04-14T12:46:52.199Z,5.30
2023-04-14T12:47:52.216Z,6.10
2023-04-14T12:48:52.184Z,4.90
2023-04-14T12:49:52.142Z,3.50
2023-04-14T12:50:52.425Z,4.10
2023-04-14T12:51:52.157Z,4.30
2023-04-14T12:52:52.140Z,5.80
2023-04-14T12:53:52.110Z,5.90
2023-04-14T12:54:52.248Z,3.70
2023-04-14T12:55:52.101Z,4.50
2023-04-14T12:56:52.095Z,4.00
2023-04-14T12:57:52.102Z,6.90
2023-04-14T12:58:52.092Z,4.50
2023-04-14T12:59:52.097Z,4.10
2023-04-14T13:00:52.065Z,4.10
2023-04-14T13:01:52.079Z,5.90
2023-04-14T13:02:52.232Z,5.90
2023-04-14T13:03:52.881Z,4.40
2023-04-14T13:04:51.990Z,5.60
2023-04-14T13:05:52.012Z,5.00
2023-04-14T13:06:51.992Z,4.70
2023-04-14T13:07:52.226Z,4.50
2023-04-14T13:08:51.958Z,3.60
2023-04-14T13:09:51.974Z,3.30
2023-04-14T13:10:51.953Z,4.50
2023-04-14T13:11:51.933Z,6.50
2023-04-14T13:12:51.923Z,5.70
2023-04-14T13:13:51.903Z,5.00
2023-04-14T13:14:51.922Z,5.50
2023-04-14T13:16:12.814Z,5.50
2023-04-14T13:16:53.403Z,4.80